sensor_id;sensor_type;location;lat;lon;timestamp;P1;durP1;ratioP1;P2;durP2;ratioP2
64615;SDS011;51027;42.162;24.754;2024-01-30T00:00:54;13.82;;;3.90;;
64615;SDS011;51027;42.162;24.754;2024-01-30T00:03:19;11.95;;;4.15;;
64615;SDS011;51027;42.162;24.754;2024-01-30T00:05:45;14.30;;;4.35;;
64615;SDS011;51027;42.162;24.754;2024-01-30T00:08:10;12.50;;;3.78;;
64615;SDS011;51027;42.162;24.754;2024-01-30T00:10:35;13.77;;;4.13;;
64615;SDS011;51027;42.162;24.754;2024-01-30T00:13:01;13.98;;;4.20;;
64615;SDS011;51027;42.162;24.754;2024-01-30T00:15:27;13.57;;;4.70;;
64615;SDS011;51027;42.162;24.754;2024-01-30T00:17:53;14.75;;;4.35;;
64615;SDS011;51027;42.162;24.754;2024-01-30T00:20:18;15.02;;;4.22;;
64615;SDS011;51027;42.162;24.754;2024-01-30T00:22:44;15.15;;;4.75;;
64615;SDS011;51027;42.162;24.754;2024-01-30T00:25:09;14.13;;;4.20;;
64615;SDS011;51027;42.162;24.754;2024-01-30T00:27:34;13.02;;;4.68;;
64615;SDS011;51027;42.162;24.754;2024-01-30T00:30:00;11.77;;;3.83;;
64615;SDS011;51027;42.162;24.754;2024-01-30T00:32:25;14.05;;;3.80;;
64615;SDS011;51027;42.162;24.754;2024-01-30T00:34:51;14.20;;;4.40;;
64615;SDS011;51027;42.162;24.754;2024-01-30T00:37:16;15.77;;;4.22;;
64615;SDS011;51027;42.162;24.754;2024-01-30T00:39:42;17.30;;;4.60;;
64615;SDS011;51027;42.162;24.754;2024-01-30T00:42:07;14.57;;;5.30;;
64615;SDS011;51027;42.162;24.754;2024-01-30T00:44:34;15.63;;;4.75;;
64615;SDS011;51027;42.162;24.754;2024-01-30T00:47:02;12.52;;;4.45;;
64615;SDS011;51027;42.162;24.754;2024-01-30T00:49:28;15.52;;;5.07;;
64615;SDS011;51027;42.162;24.754;2024-01-30T00:51:53;16.55;;;4.80;;
64615;SDS011;51027;42.162;24.754;2024-01-30T00:54:18;17.48;;;5.10;;
64615;SDS011;51027;42.162;24.754;2024-01-30T00:56:44;13.52;;;4.43;;
64615;SDS011;51027;42.162;24.754;2024-01-30T00:59:10;16.65;;;5.05;;
64615;SDS011;51027;42.162;24.754;2024-01-30T01:01:36;20.63;;;5.43;;
64615;SDS011;51027;42.162;24.754;2024-01-30T01:04:01;15.50;;;4.60;;
64615;SDS011;51027;42.162;24.754;2024-01-30T01:06:27;14.55;;;4.53;;
64615;SDS011;51027;42.162;24.754;2024-01-30T01:08:52;12.85;;;4.00;;
64615;SDS011;51027;42.162;24.754;2024-01-30T01:11:18;13.13;;;4.78;;
64615;SDS011;51027;42.162;24.754;2024-01-30T01:13:43;12.38;;;4.45;;
64615;SDS011;51027;42.162;24.754;2024-01-30T01:16:09;12.13;;;3.85;;
64615;SDS011;51027;42.162;24.754;2024-01-30T01:18:34;12.57;;;4.18;;
64615;SDS011;51027;42.162;24.754;2024-01-30T01:21:00;14.20;;;4.20;;
64615;SDS011;51027;42.162;24.754;2024-01-30T01:23:25;14.23;;;4.47;;
64615;SDS011;51027;42.162;24.754;2024-01-30T01:25:51;16.38;;;4.55;;
64615;SDS011;51027;42.162;24.754;2024-01-30T01:28:16;12.57;;;4.20;;
64615;SDS011;51027;42.162;24.754;2024-01-30T01:30:42;15.25;;;4.60;;
64615;SDS011;51027;42.162;24.754;2024-01-30T01:33:07;14.38;;;4.35;;
64615;SDS011;51027;42.162;24.754;2024-01-30T01:35:34;13.55;;;4.53;;
64615;SDS011;51027;42.162;24.754;2024-01-30T01:38:00;13.95;;;4.35;;
64615;SDS011;51027;42.162;24.754;2024-01-30T01:40:26;17.48;;;4.95;;
64615;SDS011;51027;42.162;24.754;2024-01-30T01:42:52;12.93;;;4.43;;
64615;SDS011;51027;42.162;24.754;2024-01-30T01:45:19;15.63;;;4.53;;
64615;SDS011;51027;42.162;24.754;2024-01-30T01:47:46;15.50;;;5.13;;
64615;SDS011;51027;42.162;24.754;2024-01-30T01:50:15;15.00;;;5.25;;
64615;SDS011;51027;42.162;24.754;2024-01-30T01:52:46;16.70;;;6.03;;
64615;SDS011;51027;42.162;24.754;2024-01-30T01:55:13;15.25;;;4.85;;
64615;SDS011;51027;42.162;24.754;2024-01-30T01:57:40;16.25;;;5.70;;
64615;SDS011;51027;42.162;24.754;2024-01-30T02:00:07;19.00;;;6.57;;
64615;SDS011;51027;42.162;24.754;2024-01-30T02:02:35;19.35;;;6.43;;
64615;SDS011;51027;42.162;24.754;2024-01-30T02:05:01;18.02;;;6.30;;
64615;SDS011;51027;42.162;24.754;2024-01-30T02:07:28;16.77;;;5.85;;
64615;SDS011;51027;42.162;24.754;2024-01-30T02:09:53;15.63;;;4.93;;
64615;SDS011;51027;42.162;24.754;2024-01-30T02:12:19;17.02;;;6.38;;
64615;SDS011;51027;42.162;24.754;2024-01-30T02:14:45;17.27;;;5.80;;
64615;SDS011;51027;42.162;24.754;2024-01-30T02:17:11;17.60;;;6.18;;
64615;SDS011;51027;42.162;24.754;2024-01-30T02:19:37;19.85;;;6.43;;
64615;SDS011;51027;42.162;24.754;2024-01-30T02:22:03;19.80;;;6.93;;
64615;SDS011;51027;42.162;24.754;2024-01-30T02:24:29;18.83;;;6.93;;
64615;SDS011;51027;42.162;24.754;2024-01-30T02:26:55;17.70;;;6.85;;
64615;SDS011;51027;42.162;24.754;2024-01-30T02:29:20;21.05;;;7.15;;
64615;SDS011;51027;42.162;24.754;2024-01-30T02:31:46;19.85;;;8.38;;
64615;SDS011;51027;42.162;24.754;2024-01-30T02:34:11;20.15;;;9.27;;
64615;SDS011;51027;42.162;24.754;2024-01-30T02:36:37;21.85;;;9.02;;
64615;SDS011;51027;42.162;24.754;2024-01-30T02:39:03;22.77;;;9.75;;
64615;SDS011;51027;42.162;24.754;2024-01-30T02:41:28;23.33;;;9.75;;
64615;SDS011;51027;42.162;24.754;2024-01-30T02:43:54;22.00;;;9.45;;
64615;SDS011;51027;42.162;24.754;2024-01-30T02:46:19;22.00;;;10.00;;
64615;SDS011;51027;42.162;24.754;2024-01-30T02:48:44;21.00;;;9.48;;
64615;SDS011;51027;42.162;24.754;2024-01-30T02:51:10;23.42;;;10.60;;
64615;SDS011;51027;42.162;24.754;2024-01-30T02:53:35;22.10;;;9.63;;
64615;SDS011;51027;42.162;24.754;2024-01-30T02:56:02;22.45;;;8.65;;
64615;SDS011;51027;42.162;24.754;2024-01-30T02:58:28;22.05;;;9.07;;
64615;SDS011;51027;42.162;24.754;2024-01-30T03:00:53;23.27;;;9.98;;
64615;SDS011;51027;42.162;24.754;2024-01-30T03:03:18;22.95;;;8.65;;
64615;SDS011;51027;42.162;24.754;2024-01-30T03:05:44;20.98;;;9.07;;
64615;SDS011;51027;42.162;24.754;2024-01-30T03:08:09;20.88;;;8.27;;
64615;SDS011;51027;42.162;24.754;2024-01-30T03:10:35;19.42;;;7.38;;
64615;SDS011;51027;42.162;24.754;2024-01-30T03:13:00;20.20;;;7.03;;
64615;SDS011;51027;42.162;24.754;2024-01-30T03:15:26;17.58;;;7.28;;
64615;SDS011;51027;42.162;24.754;2024-01-30T03:17:51;26.13;;;9.15;;
64615;SDS011;51027;42.162;24.754;2024-01-30T03:20:18;24.58;;;8.90;;
64615;SDS011;51027;42.162;24.754;2024-01-30T03:22:43;24.17;;;9.30;;
64615;SDS011;51027;42.162;24.754;2024-01-30T03:25:08;19.77;;;7.95;;
64615;SDS011;51027;42.162;24.754;2024-01-30T03:27:34;17.58;;;6.63;;
64615;SDS011;51027;42.162;24.754;2024-01-30T03:29:59;19.08;;;7.25;;
64615;SDS011;51027;42.162;24.754;2024-01-30T03:32:25;20.55;;;8.82;;
64615;SDS011;51027;42.162;24.754;2024-01-30T03:34:50;21.88;;;8.30;;
64615;SDS011;51027;42.162;24.754;2024-01-30T03:37:15;19.63;;;6.53;;
64615;SDS011;51027;42.162;24.754;2024-01-30T03:39:41;18.52;;;7.22;;
64615;SDS011;51027;42.162;24.754;2024-01-30T03:42:06;17.50;;;6.53;;
64615;SDS011;51027;42.162;24.754;2024-01-30T03:44:32;17.50;;;6.13;;
64615;SDS011;51027;42.162;24.754;2024-01-30T03:46:57;17.90;;;6.28;;
64615;SDS011;51027;42.162;24.754;2024-01-30T03:49:23;17.45;;;6.53;;
64615;SDS011;51027;42.162;24.754;2024-01-30T03:51:48;15.93;;;6.07;;
64615;SDS011;51027;42.162;24.754;2024-01-30T03:54:13;18.38;;;5.90;;
64615;SDS011;51027;42.162;24.754;2024-01-30T03:56:39;15.52;;;5.13;;
64615;SDS011;51027;42.162;24.754;2024-01-30T03:59:04;19.77;;;6.35;;
64615;SDS011;51027;42.162;24.754;2024-01-30T04:01:30;15.70;;;5.10;;
64615;SDS011;51027;42.162;24.754;2024-01-30T04:03:55;19.30;;;7.03;;
64615;SDS011;51027;42.162;24.754;2024-01-30T04:06:21;19.75;;;7.60;;
64615;SDS011;51027;42.162;24.754;2024-01-30T04:08:46;19.42;;;7.35;;
64615;SDS011;51027;42.162;24.754;2024-01-30T04:11:11;17.33;;;6.82;;
64615;SDS011;51027;42.162;24.754;2024-01-30T04:13:37;17.73;;;7.00;;
64615;SDS011;51027;42.162;24.754;2024-01-30T04:16:02;18.42;;;7.05;;
64615;SDS011;51027;42.162;24.754;2024-01-30T04:18:28;16.67;;;5.38;;
64615;SDS011;51027;42.162;24.754;2024-01-30T04:20:54;16.80;;;4.88;;
64615;SDS011;51027;42.162;24.754;2024-01-30T04:23:20;19.80;;;6.78;;
64615;SDS011;51027;42.162;24.754;2024-01-30T04:25:45;17.80;;;6.03;;
64615;SDS011;51027;42.162;24.754;2024-01-30T04:28:10;18.58;;;6.78;;
64615;SDS011;51027;42.162;24.754;2024-01-30T04:30:39;14.85;;;4.78;;
64615;SDS011;51027;42.162;24.754;2024-01-30T04:33:05;20.08;;;6.38;;
64615;SDS011;51027;42.162;24.754;2024-01-30T04:35:30;20.08;;;7.25;;
64615;SDS011;51027;42.162;24.754;2024-01-30T04:37:55;18.40;;;6.88;;
64615;SDS011;51027;42.162;24.754;2024-01-30T04:40:21;16.85;;;5.70;;
64615;SDS011;51027;42.162;24.754;2024-01-30T04:42:47;19.27;;;6.80;;
64615;SDS011;51027;42.162;24.754;2024-01-30T04:45:12;11.63;;;4.80;;
64615;SDS011;51027;42.162;24.754;2024-01-30T04:47:37;11.77;;;4.45;;
64615;SDS011;51027;42.162;24.754;2024-01-30T04:50:04;18.40;;;6.63;;
64615;SDS011;51027;42.162;24.754;2024-01-30T04:52:31;18.08;;;6.68;;
64615;SDS011;51027;42.162;24.754;2024-01-30T04:54:57;16.23;;;5.75;;
64615;SDS011;51027;42.162;24.754;2024-01-30T04:57:22;16.50;;;6.45;;
64615;SDS011;51027;42.162;24.754;2024-01-30T04:59:47;18.73;;;6.07;;
64615;SDS011;51027;42.162;24.754;2024-01-30T05:02:13;16.67;;;6.45;;
64615;SDS011;51027;42.162;24.754;2024-01-30T05:04:40;16.77;;;6.68;;
64615;SDS011;51027;42.162;24.754;2024-01-30T05:07:06;20.35;;;6.53;;
64615;SDS011;51027;42.162;24.754;2024-01-30T05:09:31;21.13;;;7.20;;
64615;SDS011;51027;42.162;24.754;2024-01-30T05:11:56;18.77;;;6.70;;
64615;SDS011;51027;42.162;24.754;2024-01-30T05:14:23;17.23;;;6.78;;
64615;SDS011;51027;42.162;24.754;2024-01-30T05:16:48;18.77;;;6.10;;
64615;SDS011;51027;42.162;24.754;2024-01-30T05:19:14;18.35;;;7.70;;
64615;SDS011;51027;42.162;24.754;2024-01-30T05:21:39;17.27;;;7.00;;
64615;SDS011;51027;42.162;24.754;2024-01-30T05:24:06;17.02;;;7.13;;
64615;SDS011;51027;42.162;24.754;2024-01-30T05:26:32;21.92;;;7.85;;
64615;SDS011;51027;42.162;24.754;2024-01-30T05:28:57;23.70;;;8.27;;
64615;SDS011;51027;42.162;24.754;2024-01-30T05:31:23;22.58;;;8.77;;
64615;SDS011;51027;42.162;24.754;2024-01-30T05:33:51;23.55;;;8.77;;
64615;SDS011;51027;42.162;24.754;2024-01-30T05:36:16;18.90;;;8.02;;
64615;SDS011;51027;42.162;24.754;2024-01-30T05:38:42;17.88;;;6.82;;
64615;SDS011;51027;42.162;24.754;2024-01-30T05:41:08;21.35;;;7.75;;
64615;SDS011;51027;42.162;24.754;2024-01-30T05:43:33;21.88;;;7.90;;
64615;SDS011;51027;42.162;24.754;2024-01-30T05:45:59;18.80;;;7.78;;
64615;SDS011;51027;42.162;24.754;2024-01-30T05:48:24;19.90;;;6.53;;
64615;SDS011;51027;42.162;24.754;2024-01-30T05:50:49;20.80;;;7.88;;
64615;SDS011;51027;42.162;24.754;2024-01-30T05:53:15;23.70;;;8.63;;
64615;SDS011;51027;42.162;24.754;2024-01-30T05:55:40;22.95;;;7.82;;
64615;SDS011;51027;42.162;24.754;2024-01-30T05:58:06;19.90;;;9.43;;
64615;SDS011;51027;42.162;24.754;2024-01-30T06:00:31;26.95;;;12.15;;
64615;SDS011;51027;42.162;24.754;2024-01-30T06:02:56;20.67;;;10.77;;
64615;SDS011;51027;42.162;24.754;2024-01-30T06:05:22;25.65;;;11.45;;
64615;SDS011;51027;42.162;24.754;2024-01-30T06:07:47;19.55;;;8.50;;
64615;SDS011;51027;42.162;24.754;2024-01-30T06:10:13;24.67;;;11.10;;
64615;SDS011;51027;42.162;24.754;2024-01-30T06:12:38;23.85;;;9.85;;
64615;SDS011;51027;42.162;24.754;2024-01-30T06:15:04;22.85;;;10.07;;
64615;SDS011;51027;42.162;24.754;2024-01-30T06:17:30;20.52;;;8.70;;
64615;SDS011;51027;42.162;24.754;2024-01-30T06:19:55;24.52;;;10.65;;
64615;SDS011;51027;42.162;24.754;2024-01-30T06:22:20;21.42;;;9.38;;
64615;SDS011;51027;42.162;24.754;2024-01-30T06:24:46;16.88;;;6.03;;
64615;SDS011;51027;42.162;24.754;2024-01-30T06:27:13;21.08;;;7.68;;
64615;SDS011;51027;42.162;24.754;2024-01-30T06:29:39;24.25;;;8.30;;
64615;SDS011;51027;42.162;24.754;2024-01-30T06:32:05;22.05;;;9.60;;
64615;SDS011;51027;42.162;24.754;2024-01-30T06:34:31;23.00;;;9.32;;
64615;SDS011;51027;42.162;24.754;2024-01-30T06:36:56;18.95;;;8.18;;
64615;SDS011;51027;42.162;24.754;2024-01-30T06:39:22;23.75;;;9.05;;
64615;SDS011;51027;42.162;24.754;2024-01-30T06:41:48;22.63;;;8.52;;
64615;SDS011;51027;42.162;24.754;2024-01-30T06:44:13;24.65;;;9.55;;
64615;SDS011;51027;42.162;24.754;2024-01-30T06:46:39;26.85;;;10.27;;
64615;SDS011;51027;42.162;24.754;2024-01-30T06:49:04;23.52;;;9.70;;
64615;SDS011;51027;42.162;24.754;2024-01-30T06:51:30;21.08;;;8.73;;
64615;SDS011;51027;42.162;24.754;2024-01-30T06:53:56;23.25;;;9.23;;
64615;SDS011;51027;42.162;24.754;2024-01-30T06:56:21;23.63;;;9.10;;
64615;SDS011;51027;42.162;24.754;2024-01-30T06:58:48;25.20;;;10.75;;
64615;SDS011;51027;42.162;24.754;2024-01-30T07:01:14;22.27;;;10.40;;
64615;SDS011;51027;42.162;24.754;2024-01-30T07:03:39;28.83;;;11.18;;
64615;SDS011;51027;42.162;24.754;2024-01-30T07:06:05;30.30;;;13.32;;
64615;SDS011;51027;42.162;24.754;2024-01-30T07:08:30;32.63;;;11.75;;
64615;SDS011;51027;42.162;24.754;2024-01-30T07:10:56;23.45;;;10.20;;
64615;SDS011;51027;42.162;24.754;2024-01-30T07:13:21;21.85;;;9.52;;
64615;SDS011;51027;42.162;24.754;2024-01-30T07:15:47;19.08;;;7.53;;
64615;SDS011;51027;42.162;24.754;2024-01-30T07:18:12;25.55;;;9.38;;
64615;SDS011;51027;42.162;24.754;2024-01-30T07:20:38;23.60;;;9.68;;
64615;SDS011;51027;42.162;24.754;2024-01-30T07:23:11;19.90;;;8.07;;
64615;SDS011;51027;42.162;24.754;2024-01-30T07:25:41;18.80;;;8.50;;
64615;SDS011;51027;42.162;24.754;2024-01-30T07:28:07;22.30;;;7.93;;
64615;SDS011;51027;42.162;24.754;2024-01-30T07:30:36;20.80;;;8.07;;
64615;SDS011;51027;42.162;24.754;2024-01-30T07:33:02;17.70;;;6.80;;
64615;SDS011;51027;42.162;24.754;2024-01-30T07:35:27;20.95;;;7.78;;
64615;SDS011;51027;42.162;24.754;2024-01-30T07:37:53;23.80;;;7.90;;
64615;SDS011;51027;42.162;24.754;2024-01-30T07:40:18;18.67;;;7.85;;
64615;SDS011;51027;42.162;24.754;2024-01-30T07:42:44;18.08;;;7.00;;
64615;SDS011;51027;42.162;24.754;2024-01-30T07:45:09;20.02;;;7.38;;
64615;SDS011;51027;42.162;24.754;2024-01-30T07:47:35;15.88;;;6.55;;
64615;SDS011;51027;42.162;24.754;2024-01-30T07:50:00;17.33;;;7.00;;
64615;SDS011;51027;42.162;24.754;2024-01-30T07:52:25;18.58;;;7.43;;
64615;SDS011;51027;42.162;24.754;2024-01-30T07:54:51;18.25;;;7.25;;
64615;SDS011;51027;42.162;24.754;2024-01-30T07:57:25;21.40;;;8.70;;
64615;SDS011;51027;42.162;24.754;2024-01-30T07:59:50;23.40;;;9.18;;
64615;SDS011;51027;42.162;24.754;2024-01-30T08:02:16;20.58;;;9.02;;
64615;SDS011;51027;42.162;24.754;2024-01-30T08:04:41;21.42;;;7.93;;
64615;SDS011;51027;42.162;24.754;2024-01-30T08:07:07;22.13;;;8.93;;
64615;SDS011;51027;42.162;24.754;2024-01-30T08:09:32;20.73;;;8.70;;
64615;SDS011;51027;42.162;24.754;2024-01-30T08:11:57;19.05;;;7.05;;
64615;SDS011;51027;42.162;24.754;2024-01-30T08:14:23;19.80;;;7.43;;
64615;SDS011;51027;42.162;24.754;2024-01-30T08:16:48;18.30;;;7.32;;
64615;SDS011;51027;42.162;24.754;2024-01-30T08:19:14;20.05;;;7.60;;
64615;SDS011;51027;42.162;24.754;2024-01-30T08:21:40;24.13;;;7.60;;
64615;SDS011;51027;42.162;24.754;2024-01-30T08:24:05;16.08;;;6.63;;
64615;SDS011;51027;42.162;24.754;2024-01-30T08:26:32;19.40;;;7.20;;
64615;SDS011;51027;42.162;24.754;2024-01-30T08:28:57;19.35;;;7.40;;
64615;SDS011;51027;42.162;24.754;2024-01-30T08:31:23;21.38;;;8.57;;
64615;SDS011;51027;42.162;24.754;2024-01-30T08:33:48;19.23;;;6.95;;
64615;SDS011;51027;42.162;24.754;2024-01-30T08:36:14;22.45;;;9.38;;
64615;SDS011;51027;42.162;24.754;2024-01-30T08:38:40;14.27;;;5.50;;
64615;SDS011;51027;42.162;24.754;2024-01-30T08:41:06;16.80;;;6.85;;
64615;SDS011;51027;42.162;24.754;2024-01-30T08:43:32;15.73;;;6.53;;
64615;SDS011;51027;42.162;24.754;2024-01-30T08:46:01;20.05;;;7.00;;
64615;SDS011;51027;42.162;24.754;2024-01-30T08:48:26;15.77;;;5.63;;
64615;SDS011;51027;42.162;24.754;2024-01-30T08:50:52;18.58;;;7.15;;
64615;SDS011;51027;42.162;24.754;2024-01-30T08:53:17;22.35;;;7.55;;
64615;SDS011;51027;42.162;24.754;2024-01-30T08:55:43;20.05;;;7.07;;
64615;SDS011;51027;42.162;24.754;2024-01-30T08:58:09;17.85;;;7.45;;
64615;SDS011;51027;42.162;24.754;2024-01-30T09:00:35;20.08;;;6.60;;
64615;SDS011;51027;42.162;24.754;2024-01-30T09:03:00;16.73;;;6.00;;
64615;SDS011;51027;42.162;24.754;2024-01-30T09:05:25;17.80;;;7.47;;
64615;SDS011;51027;42.162;24.754;2024-01-30T09:07:51;18.42;;;6.53;;
64615;SDS011;51027;42.162;24.754;2024-01-30T09:10:16;18.40;;;7.38;;
64615;SDS011;51027;42.162;24.754;2024-01-30T09:12:42;18.33;;;7.35;;
64615;SDS011;51027;42.162;24.754;2024-01-30T09:15:07;21.00;;;8.00;;
64615;SDS011;51027;42.162;24.754;2024-01-30T09:17:33;23.02;;;7.47;;
64615;SDS011;51027;42.162;24.754;2024-01-30T09:19:59;17.48;;;6.90;;
64615;SDS011;51027;42.162;24.754;2024-01-30T09:22:24;17.58;;;6.88;;
64615;SDS011;51027;42.162;24.754;2024-01-30T09:24:50;17.15;;;6.90;;
64615;SDS011;51027;42.162;24.754;2024-01-30T09:27:15;16.40;;;6.28;;
64615;SDS011;51027;42.162;24.754;2024-01-30T09:29:40;15.27;;;5.10;;
64615;SDS011;51027;42.162;24.754;2024-01-30T09:32:06;17.98;;;5.88;;
64615;SDS011;51027;42.162;24.754;2024-01-30T09:34:32;16.75;;;5.78;;
64615;SDS011;51027;42.162;24.754;2024-01-30T09:36:58;17.55;;;6.53;;
64615;SDS011;51027;42.162;24.754;2024-01-30T09:39:24;15.27;;;5.72;;
64615;SDS011;51027;42.162;24.754;2024-01-30T09:44:43;16.35;;;5.90;;
64615;SDS011;51027;42.162;24.754;2024-01-30T09:47:09;14.98;;;5.78;;
64615;SDS011;51027;42.162;24.754;2024-01-30T09:49:35;16.48;;;5.80;;
64615;SDS011;51027;42.162;24.754;2024-01-30T09:52:01;16.70;;;6.10;;
64615;SDS011;51027;42.162;24.754;2024-01-30T09:54:30;17.20;;;6.38;;
64615;SDS011;51027;42.162;24.754;2024-01-30T09:56:59;20.70;;;6.95;;
64615;SDS011;51027;42.162;24.754;2024-01-30T09:59:25;16.42;;;6.55;;
64615;SDS011;51027;42.162;24.754;2024-01-30T10:01:50;13.68;;;4.85;;
64615;SDS011;51027;42.162;24.754;2024-01-30T10:04:16;18.15;;;7.53;;
64615;SDS011;51027;42.162;24.754;2024-01-30T10:06:42;19.63;;;6.22;;
64615;SDS011;51027;42.162;24.754;2024-01-30T10:09:08;20.95;;;7.53;;
64615;SDS011;51027;42.162;24.754;2024-01-30T10:11:36;15.07;;;5.63;;
64615;SDS011;51027;42.162;24.754;2024-01-30T10:14:01;17.13;;;5.63;;
64615;SDS011;51027;42.162;24.754;2024-01-30T10:16:27;15.40;;;6.05;;
64615;SDS011;51027;42.162;24.754;2024-01-30T10:18:52;16.35;;;6.00;;
64615;SDS011;51027;42.162;24.754;2024-01-30T10:21:18;16.30;;;5.63;;
64615;SDS011;51027;42.162;24.754;2024-01-30T10:23:43;16.77;;;6.10;;
64615;SDS011;51027;42.162;24.754;2024-01-30T10:26:12;19.45;;;6.72;;
64615;SDS011;51027;42.162;24.754;2024-01-30T10:28:37;21.15;;;6.88;;
64615;SDS011;51027;42.162;24.754;2024-01-30T10:31:03;10.90;;;3.92;;
64615;SDS011;51027;42.162;24.754;2024-01-30T10:33:31;14.45;;;4.75;;
64615;SDS011;51027;42.162;24.754;2024-01-30T10:36:03;15.35;;;5.60;;
64615;SDS011;51027;42.162;24.754;2024-01-30T10:38:32;15.32;;;5.13;;
64615;SDS011;51027;42.162;24.754;2024-01-30T10:40:58;11.40;;;4.40;;
64615;SDS011;51027;42.162;24.754;2024-01-30T10:43:47;12.23;;;4.00;;
64615;SDS011;51027;42.162;24.754;2024-01-30T10:48:43;16.50;;;5.20;;
64615;SDS011;51027;42.162;24.754;2024-01-30T10:51:14;13.75;;;5.20;;
64615;SDS011;51027;42.162;24.754;2024-01-30T10:53:40;17.48;;;6.03;;
64615;SDS011;51027;42.162;24.754;2024-01-30T10:56:06;15.52;;;5.35;;
64615;SDS011;51027;42.162;24.754;2024-01-30T10:58:33;15.70;;;5.55;;
64615;SDS011;51027;42.162;24.754;2024-01-30T11:00:58;14.80;;;5.03;;
64615;SDS011;51027;42.162;24.754;2024-01-30T11:03:24;17.90;;;6.28;;
64615;SDS011;51027;42.162;24.754;2024-01-30T11:05:50;16.00;;;5.30;;
64615;SDS011;51027;42.162;24.754;2024-01-30T11:08:26;16.83;;;5.20;;
64615;SDS011;51027;42.162;24.754;2024-01-30T11:10:56;15.45;;;5.28;;
64615;SDS011;51027;42.162;24.754;2024-01-30T11:13:31;16.67;;;5.43;;
64615;SDS011;51027;42.162;24.754;2024-01-30T11:16:05;15.32;;;5.30;;
64615;SDS011;51027;42.162;24.754;2024-01-30T11:18:32;14.18;;;5.28;;
64615;SDS011;51027;42.162;24.754;2024-01-30T11:21:00;14.27;;;5.00;;
64615;SDS011;51027;42.162;24.754;2024-01-30T11:23:27;14.70;;;5.07;;
64615;SDS011;51027;42.162;24.754;2024-01-30T11:25:53;16.67;;;5.78;;
64615;SDS011;51027;42.162;24.754;2024-01-30T11:28:20;14.95;;;5.35;;
64615;SDS011;51027;42.162;24.754;2024-01-30T11:30:47;13.82;;;5.22;;
64615;SDS011;51027;42.162;24.754;2024-01-30T11:33:16;15.50;;;4.72;;
64615;SDS011;51027;42.162;24.754;2024-01-30T11:35:55;15.60;;;5.57;;
64615;SDS011;51027;42.162;24.754;2024-01-30T11:38:23;16.83;;;5.28;;
64615;SDS011;51027;42.162;24.754;2024-01-30T11:40:51;14.80;;;4.80;;
64615;SDS011;51027;42.162;24.754;2024-01-30T11:43:18;18.27;;;5.88;;
64615;SDS011;51027;42.162;24.754;2024-01-30T11:45:44;14.63;;;5.20;;
64615;SDS011;51027;42.162;24.754;2024-01-30T11:48:11;12.27;;;4.28;;
64615;SDS011;51027;42.162;24.754;2024-01-30T11:50:37;15.52;;;5.45;;
64615;SDS011;51027;42.162;24.754;2024-01-30T11:53:04;15.82;;;5.00;;
64615;SDS011;51027;42.162;24.754;2024-01-30T11:55:30;12.75;;;4.40;;
64615;SDS011;51027;42.162;24.754;2024-01-30T11:57:56;15.07;;;5.22;;
64615;SDS011;51027;42.162;24.754;2024-01-30T12:00:23;11.68;;;3.85;;
64615;SDS011;51027;42.162;24.754;2024-01-30T12:02:52;12.43;;;4.05;;
64615;SDS011;51027;42.162;24.754;2024-01-30T12:05:25;10.25;;;3.50;;
64615;SDS011;51027;42.162;24.754;2024-01-30T12:07:51;11.80;;;3.78;;
64615;SDS011;51027;42.162;24.754;2024-01-30T12:10:16;14.07;;;4.38;;
64615;SDS011;51027;42.162;24.754;2024-01-30T12:12:54;12.53;;;4.30;;
64615;SDS011;51027;42.162;24.754;2024-01-30T12:15:21;11.73;;;3.50;;
64615;SDS011;51027;42.162;24.754;2024-01-30T12:17:47;12.68;;;3.67;;
64615;SDS011;51027;42.162;24.754;2024-01-30T12:20:13;11.95;;;3.75;;
64615;SDS011;51027;42.162;24.754;2024-01-30T12:22:40;11.77;;;3.90;;
64615;SDS011;51027;42.162;24.754;2024-01-30T12:25:13;12.73;;;4.15;;
64615;SDS011;51027;42.162;24.754;2024-01-30T12:27:41;11.45;;;3.80;;
64615;SDS011;51027;42.162;24.754;2024-01-30T12:30:09;12.53;;;3.60;;
64615;SDS011;51027;42.162;24.754;2024-01-30T12:32:37;13.30;;;4.03;;
64615;SDS011;51027;42.162;24.754;2024-01-30T12:35:06;13.00;;;3.90;;
64615;SDS011;51027;42.162;24.754;2024-01-30T12:37:35;12.63;;;3.95;;
64615;SDS011;51027;42.162;24.754;2024-01-30T12:40:01;11.15;;;3.78;;
64615;SDS011;51027;42.162;24.754;2024-01-30T12:42:27;12.50;;;3.78;;
64615;SDS011;51027;42.162;24.754;2024-01-30T12:44:52;12.82;;;4.47;;
64615;SDS011;51027;42.162;24.754;2024-01-30T12:47:18;10.40;;;3.65;;
64615;SDS011;51027;42.162;24.754;2024-01-30T12:49:46;11.18;;;3.70;;
64615;SDS011;51027;42.162;24.754;2024-01-30T12:52:12;10.77;;;3.78;;
64615;SDS011;51027;42.162;24.754;2024-01-30T12:54:41;8.68;;;3.55;;
64615;SDS011;51027;42.162;24.754;2024-01-30T12:57:06;10.75;;;3.13;;
64615;SDS011;51027;42.162;24.754;2024-01-30T12:59:32;13.05;;;4.50;;
64615;SDS011;51027;42.162;24.754;2024-01-30T13:01:59;14.77;;;4.57;;
64615;SDS011;51027;42.162;24.754;2024-01-30T13:04:25;15.70;;;5.10;;
64615;SDS011;51027;42.162;24.754;2024-01-30T13:06:52;13.23;;;3.97;;
64615;SDS011;51027;42.162;24.754;2024-01-30T13:09:17;12.40;;;4.18;;
64615;SDS011;51027;42.162;24.754;2024-01-30T13:11:43;12.60;;;4.40;;
64615;SDS011;51027;42.162;24.754;2024-01-30T13:14:08;10.68;;;3.50;;
64615;SDS011;51027;42.162;24.754;2024-01-30T13:16:34;9.88;;;3.60;;
64615;SDS011;51027;42.162;24.754;2024-01-30T13:19:02;13.40;;;3.80;;
64615;SDS011;51027;42.162;24.754;2024-01-30T13:21:28;10.67;;;3.77;;
64615;SDS011;51027;42.162;24.754;2024-01-30T13:23:54;10.85;;;3.47;;
64615;SDS011;51027;42.162;24.754;2024-01-30T13:26:22;11.02;;;3.60;;
64615;SDS011;51027;42.162;24.754;2024-01-30T13:28:48;10.60;;;3.45;;
64615;SDS011;51027;42.162;24.754;2024-01-30T13:31:14;8.82;;;3.72;;
64615;SDS011;51027;42.162;24.754;2024-01-30T13:33:40;11.25;;;3.55;;
64615;SDS011;51027;42.162;24.754;2024-01-30T13:36:09;10.82;;;3.75;;
64615;SDS011;51027;42.162;24.754;2024-01-30T13:38:36;10.63;;;3.38;;
64615;SDS011;51027;42.162;24.754;2024-01-30T13:41:01;9.75;;;3.42;;
64615;SDS011;51027;42.162;24.754;2024-01-30T13:43:27;10.13;;;3.10;;
64615;SDS011;51027;42.162;24.754;2024-01-30T13:45:53;11.32;;;3.22;;
64615;SDS011;51027;42.162;24.754;2024-01-30T13:48:19;10.70;;;3.65;;
64615;SDS011;51027;42.162;24.754;2024-01-30T13:50:44;12.73;;;3.75;;
64615;SDS011;51027;42.162;24.754;2024-01-30T13:53:11;14.20;;;4.35;;
64615;SDS011;51027;42.162;24.754;2024-01-30T13:55:36;14.63;;;4.75;;
64615;SDS011;51027;42.162;24.754;2024-01-30T13:58:02;13.65;;;4.90;;
64615;SDS011;51027;42.162;24.754;2024-01-30T14:00:27;13.05;;;4.88;;
64615;SDS011;51027;42.162;24.754;2024-01-30T14:02:53;14.23;;;4.32;;
64615;SDS011;51027;42.162;24.754;2024-01-30T14:05:22;14.20;;;4.90;;
64615;SDS011;51027;42.162;24.754;2024-01-30T14:07:48;12.73;;;4.68;;
64615;SDS011;51027;42.162;24.754;2024-01-30T14:10:14;12.93;;;4.45;;
64615;SDS011;51027;42.162;24.754;2024-01-30T14:12:41;16.27;;;5.13;;
64615;SDS011;51027;42.162;24.754;2024-01-30T14:15:08;16.23;;;5.53;;
64615;SDS011;51027;42.162;24.754;2024-01-30T14:17:35;13.50;;;5.13;;
64615;SDS011;51027;42.162;24.754;2024-01-30T14:20:01;15.55;;;4.95;;